Terminal Aerodrome Forecast
Issued by NWS Kansas City/Pleasant Hill, MO

Home | Current Version | Previous Version | Text Only | Print | Product List | Glossary On
Versions: 1 2 3 4 5 6 7 8 9 10 11 12 13 14 15 16 17 18 19 20 21 22 23 24
001
FTUS43 KEAX 231720
TAFMCI
TAF
KMCI 231720Z 2318/2418 17012KT P6SM -SHRA VCTS OVC040CB
      TEMPO 2318/2320 2SM -TSRA
     FM240000 17008KT P6SM OVC030
     FM241200 18009KT P6SM VCTS OVC025CB=

USA.gov is the U.S. government's official web portal to all federal, state and local government web resources and services.